Main page
METAR-TAF:

METAR-TAF

Airports :

South Wood County Airport

Wisconsin Rapids, Wisconsin, United States

latitude: 44-21-33N, longitude: 089-50-13W, elevation: 1020 ft

Current weather observation

The report was made 30 minutes ago, at 17:54 UTC
Wind 6 mph from variable directions
Temperature 46°F
Humidity 31%
Pressure 30.30 in. Hg
Visibility: 10 miles
Clear sky

METAR: KISW 241754Z AUTO VRB05KT 10SM CLR 08/M08 A3030 RMK AO2 SLP269 T00831078 10089 21011 58000

Time: 13:24 (18:24 UTC)


TAF: missing

Weather observations and forecasts of more than 4000 airports (METAR and TAF reports).

The available stations are represented by yellow and red dots on the map.

Hover mouse over dot to see the name of the station.

Then click to see weather observations and forecasts.

To change the map : click on the green buttons with a black cross to zoom in, on the green button with a dash to zoom out, or on the green arrows for adjacent maps.


METAR-TAF: